Time;durP1;ratioP1;P1;durP2;ratioP2;P2;SDS_P1;SDS_P2;PMS_P1;PMS_P2;Temp;Humidity;BMP_temperature;BMP_pressure;BME280_temperature;BME280_humidity;BME280_pressure;Samples;Min_cycle;Max_cycle;Signal;HPM_P1;HPM_P2
2023/05/19 00:00:02;;;;;;;;;;;;;;;8.71;73.08;102688.44;5023991;28;20434;-50
2023/05/19 00:02:32;;;;;;;;;;;;;;;8.68;75.02;102696.84;5025121;28;19913;-52
2023/05/19 00:04:58;;;;;;;;;;;;;;;8.64;75.24;102697.41;5023866;28;19917;-48
2023/05/19 00:07:28;;;;;;;;;;;;;;;8.59;71.60;102696.22;5019160;28;20343;-51
2023/05/19 00:09:53;;;;;;;;;;;;;;;8.59;75.93;102696.22;5021210;28;19936;-48
2023/05/19 00:12:19;;;;;;;;;;;;;;;8.56;74.50;102693.47;5017999;28;20364;-50
2023/05/19 00:14:44;;;;;;;;;;;;;;;8.54;77.38;102690.78;5021722;28;19921;-51
2023/05/19 00:17:09;;;;;;;;;;;;;;;8.52;77.40;102694.06;5015330;28;19974;-51
2023/05/19 00:19:36;;;;;;;;;;;;;;;8.48;77.98;102686.94;5019502;28;19929;-51
2023/05/19 00:22:02;;;;;;;;;;;;;;;8.46;75.36;102685.97;5022487;28;19921;-49
2023/05/19 00:24:27;;;;;;;;;;;;;;;8.43;77.20;102672.94;5018449;28;19923;-49
2023/05/19 00:26:52;;;;;;;;;;;;;;;8.40;79.82;102681.31;5020682;28;19925;-50
2023/05/19 00:29:18;;;;;;;;;;;;;;;8.39;79.47;102671.84;5021135;28;19921;-49
2023/05/19 00:31:43;;;;;;;;;;;;;;;8.36;77.58;102663.94;5019444;28;20955;-51
2023/05/19 00:34:08;;;;;;;;;;;;;;;8.34;78.77;102668.06;5021182;28;20326;-50
2023/05/19 00:36:33;;;;;;;;;;;;;;;8.34;78.14;102662.94;5014950;28;19925;-52
2023/05/19 00:38:59;;;;;;;;;;;;;;;8.32;78.92;102667.09;5019866;28;20302;-53
2023/05/19 00:41:25;;;;;;;;;;;;;;;8.27;79.23;102656.53;5024924;28;19921;-51
2023/05/19 00:43:50;;;;;;;;;;;;;;;8.26;79.33;102662.44;5025268;28;19922;-51
2023/05/19 00:46:15;;;;;;;;;;;;;;;8.25;79.97;102659.75;5022533;28;19921;-51
2023/05/19 00:48:43;;;;;;;;;;;;;;;8.23;79.91;102658.78;5020301;28;19925;-52
2023/05/19 00:51:09;;;;;;;;;;;;;;;8.19;80.75;102661.91;5018617;28;19925;-50
2023/05/19 00:53:34;;;;;;;;;;;;;;;8.17;80.08;102650.69;5020681;28;19948;-49
2023/05/19 00:56:00;;;;;;;;;;;;;;;8.16;80.21;102660.03;5020015;28;19940;-51
2023/05/19 00:58:29;;;;;;;;;;;;;;;8.13;78.11;102662.41;5021141;28;19913;-51
2023/05/19 01:01:01;;;;;;;;;;;;;;;8.11;83.32;102663.09;5021039;28;20031;-51
2023/05/19 01:03:29;;;;;;;;;;;;;;;8.09;82.05;102660.44;5024150;28;19924;-51
2023/05/19 01:05:55;;;;;;;;;;;;;;;8.07;80.38;102662.91;5025580;28;19940;-51
2023/05/19 01:08:20;;;;;;;;;;;;;;;8.06;83.12;102665.34;5023837;28;20374;-49
2023/05/19 01:10:45;;;;;;;;;;;;;;;8.05;80.33;102661.00;5027364;28;19960;-49
2023/05/19 01:13:11;;;;;;;;;;;;;;;8.06;80.55;102670.47;5026387;28;19956;-51
2023/05/19 01:15:52;;;;;;;;;;;;;;;8.02;81.84;102663.38;5027740;28;19928;-52
2023/05/19 01:18:22;;;;;;;;;;;;;;;7.99;80.88;102674.28;5029226;28;19913;-49
2023/05/19 01:20:52;;;;;;;;;;;;;;;7.96;83.33;102668.97;5022831;28;20112;-48
2023/05/19 01:23:37;;;;;;;;;;;;;;;7.95;81.02;102664.63;5014859;28;19928;-48
2023/05/19 01:26:15;;;;;;;;;;;;;;;7.89;79.32;102666.78;5021616;28;20237;-49
2023/05/19 01:28:43;;;;;;;;;;;;;;;7.87;79.91;102665.78;5019820;28;19922;-48
2023/05/19 01:31:10;;;;;;;;;;;;;;;7.83;82.56;102663.81;5025243;28;20008;-49
2023/05/19 01:33:36;;;;;;;;;;;;;;;7.81;82.24;102660.22;5021873;28;19940;-48
2023/05/19 01:36:02;;;;;;;;;;;;;;;7.78;83.50;102660.03;5022769;28;20020;-50
2023/05/19 01:38:28;;;;;;;;;;;;;;;7.75;86.41;102657.25;5021665;28;20008;-51
2023/05/19 01:40:54;;;;;;;;;;;;;;;7.75;81.17;102659.81;5018884;28;19924;-49
2023/05/19 01:43:20;;;;;;;;;;;;;;;7.70;84.35;102658.63;5020879;28;19924;-48
2023/05/19 01:45:46;;;;;;;;;;;;;;;7.69;85.85;102656.84;5019638;28;20311;-48
2023/05/19 01:48:12;;;;;;;;;;;;;;;7.65;83.15;102658.31;5021904;28;19940;-48
2023/05/19 01:50:38;;;;;;;;;;;;;;;7.64;86.34;102648.84;5018882;28;19986;-48
2023/05/19 01:53:03;;;;;;;;;;;;;;;7.61;84.34;102648.66;5018019;28;20356;-49
2023/05/19 01:55:28;;;;;;;;;;;;;;;7.59;84.73;102642.53;5024020;28;19924;-48
2023/05/19 01:58:04;;;;;;;;;;;;;;;7.58;85.10;102645.84;5022567;28;20012;-48
2023/05/19 02:00:41;;;;;;;;;;;;;;;7.56;84.26;102641.44;5018980;28;19924;-47
2023/05/19 02:03:06;;;;;;;;;;;;;;;7.52;82.44;102648.91;5023404;28;19924;-48
2023/05/19 02:05:47;;;;;;;;;;;;;;;7.51;83.10;102647.13;5024896;28;20406;-48
2023/05/19 02:08:12;;;;;;;;;;;;;;;7.51;84.30;102641.09;5024108;28;19921;-49
2023/05/19 02:10:39;;;;;;;;;;;;;;;7.47;86.66;102645.16;5024748;28;19921;-48
2023/05/19 02:13:05;;;;;;;;;;;;;;;7.46;83.27;102642.47;5020021;28;20351;-48
2023/05/19 02:15:37;;;;;;;;;;;;;;;7.44;85.76;102639.81;5022525;28;19956;-50
2023/05/19 02:18:03;;;;;;;;;;;;;;;7.44;83.53;102641.47;5017975;28;19917;-48
2023/05/19 02:20:29;;;;;;;;;;;;;;;7.43;84.94;102640.59;5025671;28;19924;-48
2023/05/19 02:22:55;;;;;;;;;;;;;;;7.39;87.30;102646.28;5022968;28;19917;-50
2023/05/19 02:25:20;;;;;;;;;;;;;;;7.36;86.84;102638.41;5022363;28;19972;-48
2023/05/19 02:27:47;;;;;;;;;;;;;;;7.34;85.92;102639.97;5022883;28;19917;-49
2023/05/19 02:30:13;;;;;;;;;;;;;;;7.35;87.24;102644.31;5014911;28;19926;-52
2023/05/19 02:32:38;;;;;;;;;;;;;;;7.31;89.29;102643.97;5022973;28;19928;-52
2023/05/19 02:35:04;;;;;;;;;;;;;;;7.29;88.07;102641.31;5023164;28;20451;-50
2023/05/19 02:37:29;;;;;;;;;;;;;;;7.25;89.90;102635.09;5020896;28;19921;-50
2023/05/19 02:39:55;;;;;;;;;;;;;;;7.24;86.93;102635.88;5022621;28;20418;-49
2023/05/19 02:42:20;;;;;;;;;;;;;;;7.24;86.89;102627.31;5017793;28;19929;-52
2023/05/19 02:44:45;;;;;;;;;;;;;;;7.22;89.98;102626.31;5021478;28;19958;-49
2023/05/19 02:47:11;;;;;;;;;;;;;;;7.19;88.26;102626.97;5016333;28;19925;-49
2023/05/19 02:49:36;;;;;;;;;;;;;;;7.16;89.97;102624.22;5017466;28;19921;-52
2023/05/19 02:52:02;;;;;;;;;;;;;;;7.11;89.58;102628.13;5014390;28;20376;-50
2023/05/19 02:54:31;;;;;;;;;;;;;;;7.11;87.01;102624.69;5020019;28;19921;-48
2023/05/19 02:56:56;;;;;;;;;;;;;;;7.08;85.29;102622.78;5019892;28;19989;-47
2023/05/19 02:59:22;;;;;;;;;;;;;;;7.06;87.61;102620.91;5019745;28;19967;-48
2023/05/19 03:01:47;;;;;;;;;;;;;;;7.02;88.29;102617.25;5020906;28;19925;-48
2023/05/19 03:04:12;;;;;;;;;;;;;;;7.02;86.72;102613.78;5019457;28;19928;-48
2023/05/19 03:06:38;;;;;;;;;;;;;;;7.01;85.99;102620.56;5019109;28;19929;-49
2023/05/19 03:09:03;;;;;;;;;;;;;;;7.01;88.96;102615.47;5017954;28;19918;-52
2023/05/19 03:11:29;;;;;;;;;;;;;;;6.99;90.47;102611.91;5021837;28;19925;-48
2023/05/19 03:13:55;;;;;;;;;;;;;;;6.98;87.88;102615.25;5020006;28;19921;-48
2023/05/19 03:16:20;;;;;;;;;;;;;;;6.98;87.11;102621.28;5019882;28;19921;-51
2023/05/19 03:18:46;;;;;;;;;;;;;;;6.95;92.14;102618.47;5016508;28;19971;-51
2023/05/19 03:21:11;;;;;;;;;;;;;;;6.94;91.15;102623.50;5019532;28;20044;-47
2023/05/19 03:23:36;;;;;;;;;;;;;;;6.92;89.69;102619.94;5018904;28;19971;-47
2023/05/19 03:26:01;;;;;;;;;;;;;;;6.92;91.87;102619.94;5018000;28;20536;-48
2023/05/19 03:28:27;;;;;;;;;;;;;;;6.90;91.24;102632.59;5020470;28;19929;-48
2023/05/19 03:30:52;;;;;;;;;;;;;;;6.87;92.15;102618.72;5019833;28;19951;-49
2023/05/19 03:33:17;;;;;;;;;;;;;;;6.83;93.68;102626.94;5022030;28;19921;-48
2023/05/19 03:35:45;;;;;;;;;;;;;;;6.77;94.32;102619.72;5020220;28;19921;-49
2023/05/19 03:38:11;;;;;;;;;;;;;;;6.75;94.05;102631.53;5019517;28;19924;-48
2023/05/19 03:40:36;;;;;;;;;;;;;;;6.75;92.28;102636.63;5020721;28;19925;-47
2023/05/19 03:43:01;;;;;;;;;;;;;;;6.71;92.72;102632.97;5017039;28;19928;-48
2023/05/19 03:45:27;;;;;;;;;;;;;;;6.68;93.38;102635.31;5020856;28;19974;-50
2023/05/19 03:47:52;;;;;;;;;;;;;;;6.69;92.96;102636.19;5020218;28;19917;-48
2023/05/19 03:50:17;;;;;;;;;;;;;;;6.68;94.22;102631.88;5021414;28;19971;-48
2023/05/19 03:52:45;;;;;;;;;;;;;;;6.67;94.50;102630.06;5018474;28;19964;-51
2023/05/19 03:55:10;;;;;;;;;;;;;;;6.68;94.42;102640.44;5022112;28;19917;-49
2023/05/19 03:57:36;;;;;;;;;;;;;;;6.66;94.93;102639.41;5014972;28;20385;-48
2023/05/19 04:00:02;;;;;;;;;;;;;;;6.67;95.45;102640.28;5019951;28;20387;-49
2023/05/19 04:02:28;;;;;;;;;;;;;;;6.65;92.70;102644.41;5020721;28;20008;-49
2023/05/19 04:04:53;;;;;;;;;;;;;;;6.64;93.47;102635.88;5017606;28;20009;-48
2023/05/19 04:07:18;;;;;;;;;;;;;;;6.66;93.53;102638.53;5015542;28;19961;-48
2023/05/19 04:09:43;;;;;;;;;;;;;;;6.71;94.28;102634.63;5011620;28;19921;-50
2023/05/19 04:12:09;;;;;;;;;;;;;;;6.75;93.64;102630.63;5019150;28;19929;-49
2023/05/19 04:14:34;;;;;;;;;;;;;;;6.78;93.76;102636.84;5011610;28;19953;-47
2023/05/19 04:16:59;;;;;;;;;;;;;;;6.82;94.92;102630.28;5018612;28;20290;-47
2023/05/19 04:19:25;;;;;;;;;;;;;;;6.85;92.22;102633.94;5016415;28;19925;-49
2023/05/19 04:21:50;;;;;;;;;;;;;;;6.89;92.99;102641.06;5017110;28;19921;-49
2023/05/19 04:24:15;;;;;;;;;;;;;;;6.92;92.95;102631.06;5018819;28;20585;-52
2023/05/19 04:26:44;;;;;;;;;;;;;;;6.97;92.21;102633.91;5014535;28;19929;-52
2023/05/19 04:29:12;;;;;;;;;;;;;;;7.02;90.33;102635.13;5014973;28;19929;-48
2023/05/19 04:31:39;;;;;;;;;;;;;;;7.07;89.11;102632.91;5015306;28;19933;-49
2023/05/19 04:34:06;;;;;;;;;;;;;;;7.17;93.19;102637.91;5017213;28;20386;-49
2023/05/19 04:36:32;;;;;;;;;;;;;;;7.44;93.81;102634.69;5018354;28;19921;-48
2023/05/19 04:39:01;;;;;;;;;;;;;;;7.73;91.69;102631.56;5019186;28;20016;-48
2023/05/19 04:41:26;;;;;;;;;;;;;;;7.89;90.97;102627.47;5014916;28;20375;-48
2023/05/19 04:43:51;;;;;;;;;;;;;;;7.90;91.00;102627.56;5020880;28;19925;-48
2023/05/19 04:46:17;;;;;;;;;;;;;;;7.89;89.54;102630.03;5022993;28;19921;-49
2023/05/19 04:48:42;;;;;;;;;;;;;;;7.85;90.29;102623.81;5022759;28;19929;-48
2023/05/19 04:51:08;;;;;;;;;;;;;;;7.80;89.93;102635.41;5019957;28;19932;-49
2023/05/19 04:53:33;;;;;;;;;;;;;;;7.77;89.82;102633.56;5017601;28;19968;-49
2023/05/19 04:56:02;;;;;;;;;;;;;;;7.80;90.77;102635.41;5017712;28;20032;-49
2023/05/19 04:58:27;;;;;;;;;;;;;;;7.83;90.84;102630.53;5020048;28;20296;-49
2023/05/19 05:00:57;;;;;;;;;;;;;;;7.92;90.24;102640.47;5015237;28;19955;-48
2023/05/19 05:03:22;;;;;;;;;;;;;;;8.26;90.67;102635.94;5021021;28;20688;-53
2023/05/19 05:05:47;;;;;;;;;;;;;;;8.90;89.38;102634.94;5015413;28;19991;-51
2023/05/19 05:08:15;;;;;;;;;;;;;;;9.52;87.77;102635.38;5018781;28;19921;-51
2023/05/19 05:10:40;;;;;;;;;;;;;;;9.91;86.76;102636.00;5014236;28;20543;-52
2023/05/19 05:13:05;;;;;;;;;;;;;;;10.08;86.03;102637.00;5018646;28;20011;-49
2023/05/19 05:15:31;;;;;;;;;;;;;;;10.52;85.63;102636.09;5017757;28;20299;-51
2023/05/19 05:17:56;;;;;;;;;;;;;;;11.08;83.64;102638.34;5023442;28;19913;-51
2023/05/19 05:20:22;;;;;;;;;;;;;;;11.59;82.20;102629.94;5017292;28;19918;-49
2023/05/19 05:22:47;;;;;;;;;;;;;;;12.16;80.88;102628.56;5017256;28;19940;-51
2023/05/19 05:25:13;;;;;;;;;;;;;;;12.60;79.38;102632.41;5023521;28;19986;-52
2023/05/19 05:27:38;;;;;;;;;;;;;;;13.00;78.22;102634.31;5026484;28;19975;-53
2023/05/19 05:30:04;;;;;;;;;;;;;;;13.13;78.37;102642.69;5026681;28;19913;-52
2023/05/19 05:32:29;;;;;;;;;;;;;;;13.33;76.23;102647.91;5024224;28;20958;-52
2023/05/19 05:34:54;;;;;;;;;;;;;;;13.52;76.87;102644.44;5021094;28;19925;-52
2023/05/19 05:37:20;;;;;;;;;;;;;;;13.76;74.96;102644.63;5022588;28;19921;-51
2023/05/19 05:39:45;;;;;;;;;;;;;;;13.93;76.78;102646.25;5023437;28;19960;-51
2023/05/19 05:42:11;;;;;;;;;;;;;;;14.02;75.49;102636.31;5023282;28;19947;-51
2023/05/19 05:44:36;;;;;;;;;;;;;;;14.26;73.26;102635.53;5024707;28;19927;-51
2023/05/19 05:47:02;;;;;;;;;;;;;;;14.35;74.30;102641.97;5027235;28;19940;-49
2023/05/19 05:49:27;;;;;;;;;;;;;;;14.59;72.63;102646.41;5022436;28;19925;-52
2023/05/19 05:51:53;;;;;;;;;;;;;;;14.78;71.74;102638.53;5025734;28;19921;-52
2023/05/19 05:54:20;;;;;;;;;;;;;;;14.92;73.43;102646.84;5023362;28;20276;-51
2023/05/19 05:56:46;;;;;;;;;;;;;;;14.78;70.81;102648.03;5026089;28;19917;-52
2023/05/19 05:59:11;;;;;;;;;;;;;;;14.62;71.18;102636.16;5024802;28;19925;-50
2023/05/19 06:01:37;;;;;;;;;;;;;;;14.53;70.81;102636.69;5025196;28;19970;-52
2023/05/19 06:04:02;;;;;;;;;;;;;;;14.29;71.80;102636.56;5024051;28;19925;-50
2023/05/19 06:06:27;;;;;;;;;;;;;;;13.99;70.20;102640.44;5021961;28;19963;-51
2023/05/19 06:08:53;;;;;;;;;;;;;;;13.73;70.56;102642.81;5021676;28;20000;-48
2023/05/19 06:11:18;;;;;;;;;;;;;;;13.30;71.76;102640.03;5020755;28;19921;-47
2023/05/19 06:13:43;;;;;;;;;;;;;;;13.08;72.12;102649.34;5016309;28;19984;-49
2023/05/19 06:16:09;;;;;;;;;;;;;;;12.88;71.56;102645.84;5024311;28;19951;-48
2023/05/19 06:18:34;;;;;;;;;;;;;;;12.99;73.12;102648.03;5025924;28;19921;-52
2023/05/19 06:21:00;;;;;;;;;;;;;;;12.98;72.90;102648.81;5018674;28;20398;-48
2023/05/19 06:23:27;;;;;;;;;;;;;;;12.87;72.33;102653.50;5022010;28;19939;-51
2023/05/19 06:25:53;;;;;;;;;;;;;;;12.76;71.93;102649.53;5027924;28;20338;-49
2023/05/19 06:28:18;;;;;;;;;;;;;;;12.77;72.99;102646.13;5026002;28;19913;-49
2023/05/19 06:30:43;;;;;;;;;;;;;;;12.90;71.54;102653.66;5024518;28;19968;-50
2023/05/19 06:33:09;;;;;;;;;;;;;;;13.08;69.98;102659.66;5017808;28;19964;-51
2023/05/19 06:35:34;;;;;;;;;;;;;;;13.17;70.94;102658.34;5018108;28;19925;-51
2023/05/19 06:37:59;;;;;;;;;;;;;;;13.44;69.77;102648.38;5020455;28;20350;-50
2023/05/19 06:40:25;;;;;;;;;;;;;;;13.69;70.36;102651.25;5018237;28;19921;-52
2023/05/19 06:42:50;;;;;;;;;;;;;;;13.92;67.34;102653.13;5018222;28;19917;-49
2023/05/19 06:45:15;;;;;;;;;;;;;;;14.05;66.47;102648.47;5020945;28;20260;-51
2023/05/19 06:47:41;;;;;;;;;;;;;;;14.06;67.01;102645.06;5020866;28;19962;-50
2023/05/19 06:50:07;;;;;;;;;;;;;;;14.20;67.18;102649.13;5019527;28;20399;-52
2023/05/19 06:52:32;;;;;;;;;;;;;;;14.47;67.18;102642.50;5020526;28;19949;-48
2023/05/19 06:54:57;;;;;;;;;;;;;;;14.61;64.31;102650.81;5021231;28;20299;-52
2023/05/19 06:57:22;;;;;;;;;;;;;;;14.71;66.79;102645.19;5019624;28;19921;-53
2023/05/19 06:59:48;;;;;;;;;;;;;;;14.89;66.53;102646.75;5011011;28;19921;-48
2023/05/19 07:02:13;;;;;;;;;;;;;;;15.00;63.61;102645.44;5016653;28;19925;-48
2023/05/19 07:04:38;;;;;;;;;;;;;;;15.17;64.53;102639.19;5019508;28;19922;-52
2023/05/19 07:07:04;;;;;;;;;;;;;;;15.39;65.88;102637.38;5015908;28;19921;-50
2023/05/19 07:09:29;;;;;;;;;;;;;;;15.60;63.53;102640.75;5020207;28;20383;-50
2023/05/19 07:11:55;;;;;;;;;;;;;;;15.78;62.96;102643.16;5013777;28;19927;-51
2023/05/19 07:14:21;;;;;;;;;;;;;;;16.06;63.68;102640.66;5014888;28;19924;-53
2023/05/19 07:16:46;;;;;;;;;;;;;;;16.09;60.23;102645.97;5016954;28;19921;-52
2023/05/19 07:19:11;;;;;;;;;;;;;;;16.01;61.91;102644.81;5015788;28;20656;-48
2023/05/19 07:21:36;;;;;;;;;;;;;;;15.89;61.81;102643.50;5012755;28;20446;-52
2023/05/19 07:24:02;;;;;;;;;;;;;;;16.01;60.20;102646.53;5017302;28;20004;-52
2023/05/19 07:26:27;;;;;;;;;;;;;;;16.09;61.23;102642.50;5019609;28;20243;-52
2023/05/19 07:28:53;;;;;;;;;;;;;;;16.11;59.46;102637.34;5017755;28;19962;-50
2023/05/19 07:31:18;;;;;;;;;;;;;;;16.19;60.85;102639.34;5019655;28;19975;-51
2023/05/19 07:33:43;;;;;;;;;;;;;;;16.31;58.42;102641.47;5024023;28;20082;-52
2023/05/19 07:36:09;;;;;;;;;;;;;;;16.26;59.46;102637.84;5019130;28;20389;-52
2023/05/19 07:38:34;;;;;;;;;;;;;;;16.49;58.56;102639.47;5023285;28;19978;-52
2023/05/19 07:41:00;;;;;;;;;;;;;;;16.70;58.00;102641.00;5018276;28;19922;-51
2023/05/19 07:43:25;;;;;;;;;;;;;;;16.63;54.41;102640.81;5020997;28;19921;-52
2023/05/19 07:45:52;;;;;;;;;;;;;;;16.43;56.50;102636.69;5019589;28;19944;-52
2023/05/19 07:48:17;;;;;;;;;;;;;;;16.50;57.48;102636.06;5025443;28;20032;-52
2023/05/19 07:50:42;;;;;;;;;;;;;;;16.65;53.19;102634.78;5018911;28;19925;-51
2023/05/19 07:53:08;;;;;;;;;;;;;;;16.57;56.21;102635.44;5013884;28;19925;-53
2023/05/19 07:55:33;;;;;;;;;;;;;;;16.53;56.53;102637.88;5014824;28;19921;-49
2023/05/19 07:57:58;;;;;;;;;;;;;;;16.70;56.86;102633.22;5025713;28;19917;-53
2023/05/19 08:00:24;;;;;;;;;;;;;;;16.85;54.65;102629.38;5023014;28;19922;-53
2023/05/19 08:02:49;;;;;;;;;;;;;;;17.23;54.84;102628.75;5021956;28;19917;-52
2023/05/19 08:05:14;;;;;;;;;;;;;;;17.48;52.34;102622.53;5016709;28;19922;-52
2023/05/19 08:07:39;;;;;;;;;;;;;;;17.34;51.99;102624.72;5015937;28;19928;-48
2023/05/19 08:10:05;;;;;;;;;;;;;;;17.30;51.87;102629.00;5016141;28;19928;-53
2023/05/19 08:12:31;;;;;;;;;;;;;;;17.35;50.95;102617.00;5016565;28;20306;-53
2023/05/19 08:14:56;;;;;;;;;;;;;;;17.36;51.21;102613.56;5017706;28;19928;-53
2023/05/19 08:17:22;;;;;;;;;;;;;;;17.40;51.09;102611.91;5013375;28;20273;-53
2023/05/19 08:19:47;;;;;;;;;;;;;;;17.35;52.95;102606.59;5021666;28;19964;-54
2023/05/19 08:22:12;;;;;;;;;;;;;;;17.51;52.82;102607.00;5018351;28;20317;-52
2023/05/19 08:24:38;;;;;;;;;;;;;;;17.61;51.74;102614.22;5020878;28;19957;-49
2023/05/19 08:27:03;;;;;;;;;;;;;;;17.42;50.70;102611.13;5018240;28;19929;-53
2023/05/19 08:29:29;;;;;;;;;;;;;;;17.28;53.20;102608.97;5018330;28;19913;-52
2023/05/19 08:31:54;;;;;;;;;;;;;;;17.20;48.36;102610.47;5016504;28;19933;-52
2023/05/19 08:34:19;;;;;;;;;;;;;;;17.11;50.34;102604.19;5020031;28;19967;-52
2023/05/19 08:36:46;;;;;;;;;;;;;;;16.86;52.21;102599.06;5022620;28;19917;-50
2023/05/19 08:39:12;;;;;;;;;;;;;;;16.85;49.85;102594.72;5018633;28;19917;-52
2023/05/19 08:41:38;;;;;;;;;;;;;;;16.87;51.08;102587.88;5022120;28;19914;-52
2023/05/19 08:44:03;;;;;;;;;;;;;;;16.92;49.67;102595.78;5022029;28;19928;-52
2023/05/19 08:46:29;;;;;;;;;;;;;;;16.79;48.98;102591.94;5018036;28;20283;-50
2023/05/19 08:48:57;;;;;;;;;;;;;;;16.86;49.08;102593.88;5019347;28;20295;-51
2023/05/19 08:51:32;;;;;;;;;;;;;;;16.88;50.25;102587.03;5017148;28;19932;-52
2023/05/19 08:54:01;;;;;;;;;;;;;;;16.86;47.24;102583.50;5015681;28;20388;-52
2023/05/19 08:56:26;;;;;;;;;;;;;;;16.85;49.82;102581.72;5014614;28;19920;-52
2023/05/19 08:58:52;;;;;;;;;;;;;;;16.93;49.54;102572.47;5018205;28;19925;-53
2023/05/19 09:01:18;;;;;;;;;;;;;;;17.07;49.08;102576.34;5015039;28;20407;-52
2023/05/19 09:03:44;;;;;;;;;;;;;;;17.11;48.74;102578.19;5018934;28;19929;-54
2023/05/19 09:06:13;;;;;;;;;;;;;;;17.16;48.30;102567.91;5025815;28;19913;-52
2023/05/19 09:08:41;;;;;;;;;;;;;;;17.16;48.43;102567.91;5022457;28;19979;-52
2023/05/19 09:11:07;;;;;;;;;;;;;;;17.29;47.44;102566.53;5023593;28;19924;-52
2023/05/19 09:13:33;;;;;;;;;;;;;;;17.35;47.54;102559.78;5024074;28;19925;-53
2023/05/19 09:15:59;;;;;;;;;;;;;;;17.37;45.71;102567.63;5022077;28;19944;-52
2023/05/19 09:18:25;;;;;;;;;;;;;;;17.32;46.55;102558.81;5023904;28;19997;-52
2023/05/19 09:20:58;;;;;;;;;;;;;;;17.40;44.20;102562.50;5021989;28;20586;-51
2023/05/19 09:23:27;;;;;;;;;;;;;;;17.26;43.76;102554.31;5021525;28;19964;-52
2023/05/19 09:25:53;;;;;;;;;;;;;;;17.21;45.80;102550.72;5017034;28;19936;-53
2023/05/19 09:28:46;;;;;;;;;;;;;;;17.27;45.68;102544.81;5021754;28;19918;-53
2023/05/19 09:31:11;;;;;;;;;;;;;;;17.48;44.59;102549.72;5019266;28;20382;-50
2023/05/19 09:33:43;;;;;;;;;;;;;;;17.65;45.07;102549.31;5025596;28;19925;-54
2023/05/19 09:36:09;;;;;;;;;;;;;;;17.92;43.89;102540.47;5020801;28;19925;-52
2023/05/19 09:38:35;;;;;;;;;;;;;;;17.94;41.84;102542.25;5013066;28;19918;-52
2023/05/19 09:41:00;;;;;;;;;;;;;;;17.72;41.76;102542.59;5020598;28;19967;-53
2023/05/19 09:43:26;;;;;;;;;;;;;;;17.77;41.86;102545.28;5025826;28;19917;-52
2023/05/19 09:46:18;;;;;;;;;;;;;;;17.82;41.57;102546.28;5023919;28;19922;-53
2023/05/19 09:48:43;;;;;;;;;;;;;;;17.90;41.60;102544.78;5020973;28;20005;-51
2023/05/19 09:51:09;;;;;;;;;;;;;;;17.94;42.94;102551.78;5018592;28;20003;-52
2023/05/19 09:53:34;;;;;;;;;;;;;;;17.95;42.67;102541.41;5015123;28;19968;-53
2023/05/19 09:56:01;;;;;;;;;;;;;;;18.02;40.54;102555.47;5023319;28;19925;-52
2023/05/19 09:58:29;;;;;;;;;;;;;;;17.89;40.46;102554.28;5020835;28;19917;-52
2023/05/19 10:00:55;;;;;;;;;;;;;;;17.81;42.93;102547.13;5020457;28;20338;-52
2023/05/19 10:03:22;;;;;;;;;;;;;;;17.82;40.66;102554.09;5017296;28;19921;-52
2023/05/19 10:05:48;;;;;;;;;;;;;;;17.70;41.97;102542.50;5019256;28;20390;-49
2023/05/19 10:08:16;;;;;;;;;;;;;;;17.86;41.39;102548.13;5018897;28;19921;-50
2023/05/19 10:10:44;;;;;;;;;;;;;;;17.81;40.77;102542.81;5023061;28;20310;-52
2023/05/19 10:13:09;;;;;;;;;;;;;;;17.82;41.83;102536.75;5022912;28;19978;-50
2023/05/19 10:15:35;;;;;;;;;;;;;;;17.79;40.59;102536.69;5024127;28;19925;-52
2023/05/19 10:18:01;;;;;;;;;;;;;;;17.86;40.71;102542.94;5021998;28;19929;-52
2023/05/19 10:20:27;;;;;;;;;;;;;;;17.80;40.73;102545.38;5022849;28;20684;-52
2023/05/19 10:22:52;;;;;;;;;;;;;;;17.83;41.16;102540.22;5021869;28;19925;-53
2023/05/19 10:25:18;;;;;;;;;;;;;;;17.96;41.01;102539.72;5020264;28;19921;-52
2023/05/19 10:27:55;;;;;;;;;;;;;;;18.12;41.43;102541.81;5021204;28;20111;-52
2023/05/19 10:30:24;;;;;;;;;;;;;;;18.22;40.96;102533.38;5022084;28;19917;-51
2023/05/19 10:32:51;;;;;;;;;;;;;;;18.32;41.74;102534.50;5023942;28;19960;-53
2023/05/19 10:35:36;;;;;;;;;;;;;;;18.54;39.87;102537.56;5023923;28;20318;-53
2023/05/19 10:38:20;;;;;;;;;;;;;;;18.64;40.88;102524.75;5021088;28;19944;-52
2023/05/19 10:41:03;;;;;;;;;;;;;;;18.63;40.63;102525.63;5021229;28;20371;-53
2023/05/19 10:43:28;;;;;;;;;;;;;;;18.81;41.02;102517.34;5023431;28;19917;-52
2023/05/19 10:45:54;;;;;;;;;;;;;;;18.83;40.04;102519.97;5023041;28;19923;-54
2023/05/19 10:48:22;;;;;;;;;;;;;;;18.65;40.82;102513.50;5017993;28;20032;-53
2023/05/19 10:50:51;;;;;;;;;;;;;;;18.68;41.36;102516.19;5020367;28;19933;-54
2023/05/19 10:53:19;;;;;;;;;;;;;;;18.75;41.04;102507.66;5020567;28;20024;-53
2023/05/19 10:55:49;;;;;;;;;;;;;;;18.86;40.87;102502.66;5021190;28;20371;-52
2023/05/19 10:58:14;;;;;;;;;;;;;;;18.89;40.57;102513.16;5024057;28;19921;-54
2023/05/19 11:00:40;;;;;;;;;;;;;;;18.93;39.85;102506.28;5024908;28;20509;-53
2023/05/19 11:03:16;;;;;;;;;;;;;;;18.69;38.61;102519.69;5023972;28;20008;-53
2023/05/19 11:05:45;;;;;;;;;;;;;;;18.57;40.73;102509.84;5019991;28;19917;-52
2023/05/19 11:08:11;;;;;;;;;;;;;;;18.70;39.33;102498.88;5023225;28;19972;-53
2023/05/19 11:10:36;;;;;;;;;;;;;;;18.70;40.40;102504.09;5021684;28;19937;-54
2023/05/19 11:13:03;;;;;;;;;;;;;;;18.77;39.69;102510.28;5021855;28;20019;-52
2023/05/19 11:15:28;;;;;;;;;;;;;;;18.94;38.17;102505.44;5024547;28;19917;-53
2023/05/19 11:17:53;;;;;;;;;;;;;;;19.06;38.52;102516.09;5021352;28;19949;-53
2023/05/19 11:20:21;;;;;;;;;;;;;;;19.08;39.86;102509.16;5021016;28;19929;-52
2023/05/19 11:23:05;;;;;;;;;;;;;;;19.07;39.70;102509.16;5020243;28;19932;-57
2023/05/19 11:25:42;;;;;;;;;;;;;;;19.12;38.69;102510.13;5020873;28;19978;-57
2023/05/19 11:28:10;;;;;;;;;;;;;;;19.04;39.00;102509.94;5022382;28;19917;-54
2023/05/19 11:30:36;;;;;;;;;;;;;;;19.06;39.03;102503.06;5022834;28;19921;-52
2023/05/19 11:33:01;;;;;;;;;;;;;;;19.04;39.69;102502.13;5021037;28;19949;-51
2023/05/19 11:35:28;;;;;;;;;;;;;;;19.03;39.94;102487.34;5017445;28;19943;-55
2023/05/19 11:37:53;;;;;;;;;;;;;;;19.13;38.99;102488.41;5020839;28;19944;-54
2023/05/19 11:40:20;;;;;;;;;;;;;;;19.22;39.15;102491.16;5013697;28;20294;-55
2023/05/19 11:42:45;;;;;;;;;;;;;;;19.38;39.96;102489.72;5015015;28;19917;-54
2023/05/19 11:45:11;;;;;;;;;;;;;;;19.51;39.76;102489.94;5020589;28;19921;-55
2023/05/19 11:47:36;;;;;;;;;;;;;;;19.85;38.55;102494.91;5015376;28;19921;-56
2023/05/19 11:50:02;;;;;;;;;;;;;;;20.09;39.07;102488.31;5017731;28;20019;-55
2023/05/19 11:52:27;;;;;;;;;;;;;;;20.30;37.83;102482.50;5022974;28;20380;-57
2023/05/19 11:54:55;;;;;;;;;;;;;;;20.38;36.97;102481.72;5020964;28;20499;-56
2023/05/19 11:57:21;;;;;;;;;;;;;;;20.48;36.92;102483.63;5016625;28;19932;-56
2023/05/19 11:59:48;;;;;;;;;;;;;;;20.44;36.75;102476.56;5020307;28;19917;-56
2023/05/19 12:02:17;;;;;;;;;;;;;;;20.40;37.52;102469.56;5014001;28;20077;-55
2023/05/19 12:04:43;;;;;;;;;;;;;;;20.43;38.41;102466.97;5019590;28;19921;-56
2023/05/19 12:07:10;;;;;;;;;;;;;;;20.77;36.68;102465.69;5018096;28;19924;-56
2023/05/19 12:09:36;;;;;;;;;;;;;;;21.08;36.30;102467.78;5022208;28;19913;-50
2023/05/19 12:12:01;;;;;;;;;;;;;;;21.16;33.36;102480.91;5021110;28;19935;-54
2023/05/19 12:14:28;;;;;;;;;;;;;;;20.74;34.93;102471.75;5011842;28;19960;-54
2023/05/19 12:16:53;;;;;;;;;;;;;;;20.52;36.24;102465.41;5010852;28;20383;-55
2023/05/19 12:19:21;;;;;;;;;;;;;;;20.22;36.73;102455.41;5015163;28;19925;-52
2023/05/19 12:21:46;;;;;;;;;;;;;;;19.97;37.75;102453.31;5013100;28;20402;-55
2023/05/19 12:24:12;;;;;;;;;;;;;;;20.05;37.30;102452.56;5017922;28;19917;-54
2023/05/19 12:26:37;;;;;;;;;;;;;;;19.95;38.22;102449.78;5010843;28;19918;-53
2023/05/19 12:29:06;;;;;;;;;;;;;;;20.02;36.99;102452.53;5025120;28;19925;-51
2023/05/19 12:31:32;;;;;;;;;;;;;;;20.06;36.91;102456.03;5014758;28;19922;-55
2023/05/19 12:33:57;;;;;;;;;;;;;;;19.58;37.31;102457.03;5017858;28;19970;-54
2023/05/19 12:36:22;;;;;;;;;;;;;;;19.47;38.30;102456.81;5017765;28;20402;-56